Time;durP1;ratioP1;P1;durP2;ratioP2;P2;SDS_P1;SDS_P2;PMS_P1;PMS_P2;Temp;Humidity;BMP_temperature;BMP_pressure;BME280_temperature;BME280_humidity;BME280_pressure;Samples;Min_cycle;Max_cycle;Signal;HPM_P1;HPM_P2
2024/01/31 00:02:02;;;;;;;2.47;0.50;;;10.10;66.20;11.90;103191.00;;;;4982023;28;20229;-75
2024/01/31 00:04:29;;;;;;;1.10;0.38;;;10.10;66.40;11.90;103188.00;;;;4991062;28;20585;-74
2024/01/31 00:06:57;;;;;;;4.28;0.70;;;10.00;66.40;11.90;103192.00;;;;4991572;28;20190;-74
2024/01/31 00:09:24;;;;;;;1.67;0.70;;;10.00;66.50;11.90;103202.00;;;;4977987;28;20224;-75
2024/01/31 00:11:51;;;;;;;4.35;1.30;;;10.00;66.50;11.90;103196.00;;;;4992447;28;20203;-74
2024/01/31 00:14:18;;;;;;;1.30;0.38;;;10.00;66.60;11.80;103199.00;;;;4991932;28;20285;-74
2024/01/31 00:16:46;;;;;;;2.72;0.52;;;10.00;66.60;11.80;103219.00;;;;4991931;28;20648;-74
2024/01/31 00:19:13;;;;;;;1.58;0.38;;;9.90;66.60;11.80;103222.00;;;;4992179;28;20225;-74
2024/01/31 00:21:41;;;;;;;1.02;0.30;;;10.00;66.80;11.80;103220.00;;;;4984905;28;20289;-74
2024/01/31 00:24:10;;;;;;;1.58;0.30;;;9.90;66.70;11.80;103230.00;;;;4980075;28;20194;-74
2024/01/31 00:26:38;;;;;;;0.60;0.35;;;9.90;66.80;11.80;103235.00;;;;4976832;28;20202;-74
2024/01/31 00:29:05;;;;;;;2.38;0.50;;;10.00;66.90;11.80;103244.00;;;;4974991;28;20201;-75
2024/01/31 00:31:33;;;;;;;5.25;0.90;;;9.90;66.90;11.90;103233.00;;;;4984129;28;20196;-74
2024/01/31 00:34:00;;;;;;;2.33;0.47;;;9.90;66.90;11.90;103243.00;;;;4992050;28;20225;-74
2024/01/31 00:36:28;;;;;;;2.20;0.40;;;10.00;67.00;11.90;103236.00;;;;4991393;28;20221;-74
2024/01/31 00:38:55;;;;;;;1.42;0.35;;;10.00;67.70;11.90;103229.00;;;;4990419;28;20556;-74
2024/01/31 00:41:23;;;;;;;1.98;0.70;;;10.00;67.10;11.90;103229.00;;;;4990287;28;20202;-74
2024/01/31 00:43:50;;;;;;;2.70;0.50;;;10.00;67.20;11.90;103238.00;;;;4990664;28;20202;-74
2024/01/31 00:46:17;;;;;;;1.80;0.68;;;10.00;67.20;11.90;103241.00;;;;4991100;28;20198;-74
2024/01/31 00:48:45;;;;;;;1.30;0.50;;;10.00;67.30;11.90;103243.00;;;;4992259;28;20204;-74
2024/01/31 00:51:12;;;;;;;3.15;0.22;;;10.00;67.30;11.90;103239.00;;;;4990998;28;20303;-74
2024/01/31 00:53:39;;;;;;;1.50;0.65;;;10.00;67.30;12.00;103239.00;;;;4985243;28;20221;-74
2024/01/31 00:56:08;;;;;;;1.58;0.45;;;10.10;67.30;12.00;103235.00;;;;4982310;28;20560;-74
2024/01/31 00:58:37;;;;;;;1.52;0.47;;;10.00;67.30;12.00;103232.00;;;;4972327;28;20281;-74
2024/01/31 01:01:04;;;;;;;2.75;0.60;;;10.10;67.40;12.00;103242.00;;;;4974762;28;20203;-74
2024/01/31 01:03:31;;;;;;;0.50;0.38;;;10.10;67.40;12.00;103236.00;;;;4993032;28;20232;-74
2024/01/31 01:05:58;;;;;;;1.02;0.45;;;10.10;67.30;12.00;103239.00;;;;4990548;28;20285;-74
2024/01/31 01:08:25;;;;;;;2.50;0.68;;;10.10;67.40;12.10;103241.00;;;;4976165;28;20690;-74
2024/01/31 01:10:54;;;;;;;3.42;0.73;;;10.10;67.40;12.10;103242.00;;;;4984451;28;20296;-75
2024/01/31 01:13:21;;;;;;;2.10;0.63;;;10.20;67.50;12.10;103238.00;;;;4994405;28;20229;-75
2024/01/31 01:15:49;;;;;;;2.80;0.77;;;10.20;67.40;12.10;103235.00;;;;4995439;28;20220;-75
2024/01/31 01:18:16;;;;;;;1.83;0.60;;;10.20;67.40;12.10;103233.00;;;;4995824;28;20194;-74
2024/01/31 01:20:43;;;;;;;1.88;0.70;;;10.20;67.40;12.10;103229.00;;;;4990529;28;20228;-74
2024/01/31 01:23:11;;;;;;;1.35;0.80;;;10.20;67.40;12.10;103237.00;;;;4992812;28;20578;-74
2024/01/31 01:25:38;;;;;;;0.93;0.40;;;10.20;67.40;12.10;103234.00;;;;4980977;28;20205;-74
2024/01/31 01:28:06;;;;;;;1.88;0.43;;;10.30;67.40;12.10;103232.00;;;;4985815;28;20292;-74
2024/01/31 01:30:33;;;;;;;1.35;0.50;;;10.30;67.30;12.10;103237.00;;;;4993964;28;20289;-75
2024/01/31 01:33:01;;;;;;;0.85;0.55;;;10.30;67.30;12.10;103239.00;;;;4976842;28;20222;-74
2024/01/31 01:35:29;;;;;;;1.33;0.50;;;10.30;67.20;12.20;103241.00;;;;4986101;28;20279;-75
2024/01/31 01:37:56;;;;;;;1.50;0.70;;;10.30;67.20;12.20;103242.00;;;;4975436;28;20210;-75
2024/01/31 01:40:23;;;;;;;0.68;0.40;;;10.30;67.20;12.20;103239.00;;;;4994110;28;20293;-75
2024/01/31 01:42:50;;;;;;;3.33;0.50;;;10.30;67.20;12.20;103237.00;;;;4995138;28;20204;-76
2024/01/31 01:45:17;;;;;;;2.40;0.50;;;10.30;67.20;12.20;103235.00;;;;4988779;28;20294;-75
2024/01/31 01:47:48;;;;;;;0.65;0.40;;;10.30;67.20;12.10;103230.00;;;;4983263;28;20209;-74
2024/01/31 01:50:17;;;;;;;0.95;0.57;;;10.30;67.20;12.20;103219.00;;;;4995122;28;20200;-75
2024/01/31 01:52:45;;;;;;;1.15;0.30;;;10.30;67.20;12.20;103232.00;;;;4980438;28;20226;-75
2024/01/31 01:55:12;;;;;;;2.95;0.65;;;10.30;67.20;12.20;103240.00;;;;4978183;28;20189;-74
2024/01/31 01:57:40;;;;;;;0.93;0.30;;;10.30;67.20;12.20;103235.00;;;;4975279;28;20198;-74
2024/01/31 02:00:11;;;;;;;1.50;0.50;;;10.30;67.20;12.20;103235.00;;;;4975016;28;20574;-75
2024/01/31 02:02:38;;;;;;;2.15;0.60;;;10.40;67.20;12.20;103225.00;;;;4986698;28;20221;-75
2024/01/31 02:05:08;;;;;;;1.52;0.60;;;10.40;67.20;12.20;103226.00;;;;4990919;28;20209;-74
2024/01/31 02:07:37;;;;;;;0.80;0.50;;;10.40;67.20;12.20;103230.00;;;;4975351;28;20260;-75
2024/01/31 02:10:06;;;;;;;0.45;0.25;;;10.40;67.30;12.30;103226.00;;;;4983048;28;20215;-74
2024/01/31 02:12:33;;;;;;;2.00;0.50;;;10.40;67.30;12.20;103228.00;;;;4994447;28;20205;-74
2024/01/31 02:15:00;;;;;;;1.45;0.50;;;10.40;67.30;12.30;103224.00;;;;4991214;28;20212;-74
2024/01/31 02:17:27;;;;;;;1.35;0.60;;;10.40;67.30;12.30;103226.00;;;;4992025;28;20241;-74
2024/01/31 02:19:54;;;;;;;1.15;0.43;;;10.40;67.30;12.30;103223.00;;;;4993786;28;20212;-74
2024/01/31 02:22:22;;;;;;;3.40;0.60;;;10.40;67.20;12.30;103229.00;;;;4994606;28;20194;-74
2024/01/31 02:24:49;;;;;;;1.05;0.40;;;10.40;67.20;12.30;103234.00;;;;4988998;28;20202;-74
2024/01/31 02:27:16;;;;;;;0.65;0.22;;;10.40;67.20;12.30;103221.00;;;;4983963;28;20647;-74
2024/01/31 02:29:44;;;;;;;1.05;0.30;;;10.40;67.10;12.30;103211.00;;;;4985876;28;20211;-74
2024/01/31 02:32:11;;;;;;;0.90;0.30;;;10.50;67.20;12.30;103213.00;;;;4988628;28;20217;-74
2024/01/31 02:34:38;;;;;;;1.77;0.50;;;10.50;67.20;12.30;103216.00;;;;4992459;28;20232;-74
2024/01/31 02:37:05;;;;;;;2.28;0.30;;;10.40;67.20;12.40;103220.00;;;;4992220;28;20217;-74
2024/01/31 02:39:33;;;;;;;1.17;0.57;;;10.50;67.20;12.30;103211.00;;;;4991724;28;20194;-74
2024/01/31 02:42:00;;;;;;;3.40;0.60;;;10.40;67.20;12.40;103212.00;;;;4993420;28;20201;-74
2024/01/31 02:44:27;;;;;;;0.90;0.40;;;10.50;67.30;12.40;103203.00;;;;4988342;28;20208;-74
2024/01/31 02:46:54;;;;;;;1.10;0.68;;;10.40;67.20;12.30;103205.00;;;;4993639;28;20292;-74
2024/01/31 02:49:21;;;;;;;1.15;0.47;;;10.50;67.20;12.30;103209.00;;;;4991121;28;20744;-75
2024/01/31 02:51:48;;;;;;;1.10;0.57;;;10.50;67.20;12.30;103220.00;;;;4974719;28;20689;-75
2024/01/31 02:54:15;;;;;;;1.73;0.45;;;10.50;67.20;12.30;103201.00;;;;4990478;28;20232;-74
2024/01/31 02:56:44;;;;;;;2.17;0.47;;;10.50;67.60;12.30;103200.00;;;;4986941;28;20206;-74
2024/01/31 02:59:11;;;;;;;0.63;0.30;;;10.50;67.20;12.30;103201.00;;;;4992183;28;20190;-74
2024/01/31 03:01:45;;;;;;;1.17;0.38;;;10.40;67.10;12.20;103202.00;;;;4993363;28;20205;-74
2024/01/31 03:04:12;;;;;;;3.00;1.05;;;10.50;67.20;12.30;103202.00;;;;4983669;28;20659;-74
2024/01/31 03:06:39;;;;;;;1.73;0.50;;;10.50;67.10;12.30;103198.00;;;;4993491;28;20725;-74
2024/01/31 03:09:06;;;;;;;0.70;0.32;;;10.50;67.20;12.30;103193.00;;;;4992461;28;20685;-74
2024/01/31 03:11:33;;;;;;;1.10;0.47;;;10.40;67.10;12.30;103191.00;;;;4992532;28;20655;-74
2024/01/31 03:14:02;;;;;;;2.85;0.93;;;10.40;67.20;12.30;103186.00;;;;4992031;28;20222;-74
2024/01/31 03:16:29;;;;;;;1.73;1.10;;;10.40;67.20;12.30;103185.00;;;;4993003;28;20202;-74
2024/01/31 03:18:58;;;;;;;1.25;0.40;;;10.40;67.20;12.30;103187.00;;;;4993198;28;20203;-75
2024/01/31 03:21:25;;;;;;;1.20;0.50;;;10.40;67.20;12.30;103185.00;;;;4993167;28;20205;-74
2024/01/31 03:23:52;;;;;;;1.77;1.10;;;10.40;67.20;12.30;103184.00;;;;4990897;28;20201;-74
2024/01/31 03:26:19;;;;;;;4.38;0.60;;;10.40;67.20;12.30;103186.00;;;;4986469;28;20201;-74
2024/01/31 03:28:46;;;;;;;1.67;0.60;;;10.40;67.20;12.30;103187.00;;;;4990614;28;20197;-74
2024/01/31 03:31:15;;;;;;;1.55;0.47;;;10.40;67.10;12.30;103180.00;;;;4990529;28;20194;-74
2024/01/31 03:33:42;;;;;;;2.47;0.52;;;10.40;67.20;12.30;103174.00;;;;4992230;28;20325;-74
2024/01/31 03:36:11;;;;;;;0.80;0.52;;;10.40;67.20;12.30;103179.00;;;;4983820;28;20208;-74
2024/01/31 03:38:38;;;;;;;1.42;0.50;;;10.40;67.20;12.30;103175.00;;;;4986140;28;20221;-74
2024/01/31 03:41:06;;;;;;;1.35;0.50;;;10.40;67.20;12.30;103172.00;;;;4992747;28;20667;-74
2024/01/31 03:43:33;;;;;;;1.83;0.73;;;10.40;67.20;12.30;103176.00;;;;4989175;28;20205;-74
2024/01/31 03:46:01;;;;;;;2.60;0.77;;;10.40;67.20;12.30;103173.00;;;;4991638;28;20205;-74
2024/01/31 03:48:30;;;;;;;1.60;0.40;;;10.40;67.20;12.30;103160.00;;;;4992877;28;20197;-74
2024/01/31 03:50:58;;;;;;;1.35;0.50;;;10.40;67.30;12.30;103165.00;;;;4991512;28;20229;-74
2024/01/31 03:53:26;;;;;;;1.00;0.40;;;10.40;67.20;12.30;103162.00;;;;4991532;28;20224;-75
2024/01/31 03:55:53;;;;;;;3.42;0.68;;;10.40;67.20;12.30;103155.00;;;;4991898;28;20202;-74
2024/01/31 03:58:21;;;;;;;2.90;0.55;;;10.50;67.40;12.30;103154.00;;;;4992790;28;20249;-76
2024/01/31 04:00:48;;;;;;;3.33;0.70;;;10.40;67.30;12.30;103152.00;;;;4990100;28;20227;-75
2024/01/31 04:03:20;;;;;;;1.42;0.57;;;10.40;67.30;12.30;103147.00;;;;4972837;28;20590;-75
2024/01/31 04:05:49;;;;;;;1.88;0.50;;;10.40;67.30;12.30;103151.00;;;;4980849;28;20205;-75
2024/01/31 04:08:17;;;;;;;2.42;0.63;;;10.40;67.20;12.30;103158.00;;;;4991809;28;20193;-74
2024/01/31 04:10:44;;;;;;;2.28;1.33;;;10.40;67.20;12.30;103153.00;;;;4991455;28;20208;-74
2024/01/31 04:13:11;;;;;;;1.88;0.60;;;10.50;67.30;12.30;103151.00;;;;4992273;28;20202;-74
2024/01/31 04:15:38;;;;;;;0.88;0.28;;;10.40;67.20;12.30;103141.00;;;;4985831;28;20678;-75
2024/01/31 04:18:07;;;;;;;1.05;0.50;;;10.40;67.20;12.30;103146.00;;;;4992893;28;20214;-74
2024/01/31 04:20:35;;;;;;;1.08;0.40;;;10.40;67.20;12.30;103157.00;;;;4987510;28;20622;-75
2024/01/31 04:23:04;;;;;;;2.42;0.50;;;10.40;67.20;12.30;103152.00;;;;4989198;28;20630;-74
2024/01/31 04:25:31;;;;;;;1.35;0.40;;;10.40;67.20;12.30;103153.00;;;;4982305;28;20198;-75
2024/01/31 04:27:58;;;;;;;3.28;0.90;;;10.50;67.20;12.30;103152.00;;;;4975375;28;20202;-74
2024/01/31 04:30:25;;;;;;;3.35;0.55;;;10.40;67.10;12.30;103158.00;;;;4972830;28;20206;-74
2024/01/31 04:32:53;;;;;;;1.30;0.57;;;10.40;67.20;12.30;103155.00;;;;4991007;28;20197;-75
2024/01/31 04:35:20;;;;;;;2.92;0.40;;;10.40;67.20;12.30;103153.00;;;;4991818;28;20229;-75
2024/01/31 04:37:47;;;;;;;1.38;0.50;;;10.40;67.30;12.30;103154.00;;;;4988420;28;20210;-75
2024/01/31 04:40:17;;;;;;;2.70;0.80;;;10.40;67.20;12.30;103159.00;;;;4983925;28;20202;-75
2024/01/31 04:42:46;;;;;;;1.25;0.63;;;10.40;67.30;12.30;103159.00;;;;4996654;28;20202;-75
2024/01/31 04:45:14;;;;;;;1.13;0.40;;;10.40;67.30;12.30;103154.00;;;;4985151;28;20204;-75
2024/01/31 04:47:42;;;;;;;1.65;0.47;;;10.40;67.30;12.30;103158.00;;;;4995162;28;20204;-75
2024/01/31 04:50:11;;;;;;;1.90;0.75;;;10.40;67.30;12.30;103146.00;;;;4995605;28;20224;-74
2024/01/31 04:52:39;;;;;;;1.13;0.65;;;10.40;67.30;12.30;103138.00;;;;4993906;28;20218;-75
2024/01/31 04:55:07;;;;;;;3.53;0.60;;;10.40;67.30;12.30;103141.00;;;;4985358;28;20260;-76
2024/01/31 04:57:35;;;;;;;1.92;0.90;;;10.40;67.20;12.30;103139.00;;;;4976679;28;20195;-75
2024/01/31 05:00:04;;;;;;;1.08;0.73;;;10.40;67.20;12.30;103144.00;;;;4994682;28;20198;-75
2024/01/31 05:02:31;;;;;;;1.67;0.90;;;10.40;67.20;12.30;103138.00;;;;4995245;28;20235;-74
2024/01/31 05:04:58;;;;;;;1.67;0.80;;;10.40;67.20;12.30;103144.00;;;;4983159;28;20200;-74
2024/01/31 05:07:25;;;;;;;1.33;0.65;;;10.40;67.20;12.30;103143.00;;;;4993860;28;20202;-75
2024/01/31 05:09:52;;;;;;;1.88;0.80;;;10.40;67.20;12.30;103142.00;;;;4991480;28;20260;-74
2024/01/31 05:12:19;;;;;;;3.00;1.00;;;10.40;67.20;12.30;103142.00;;;;4995597;28;20569;-74
2024/01/31 05:14:48;;;;;;;3.63;0.77;;;10.40;67.20;12.30;103156.00;;;;4995269;28;20222;-74
2024/01/31 05:17:15;;;;;;;1.45;0.60;;;10.40;67.20;12.30;103157.00;;;;4994476;28;20284;-74
2024/01/31 05:19:42;;;;;;;1.23;0.90;;;10.40;67.20;12.30;103147.00;;;;4993851;28;20991;-75
2024/01/31 05:22:09;;;;;;;1.85;0.85;;;10.40;67.20;12.30;103144.00;;;;4995242;28;20293;-75
2024/01/31 05:24:36;;;;;;;2.25;0.70;;;10.40;67.20;12.30;103145.00;;;;4983770;28;20564;-75
2024/01/31 05:27:05;;;;;;;1.60;0.70;;;10.40;67.20;12.30;103140.00;;;;4981336;28;20204;-74
2024/01/31 05:29:32;;;;;;;2.15;0.90;;;10.40;67.20;12.30;103137.00;;;;4994550;28;20194;-74
2024/01/31 05:32:00;;;;;;;1.23;0.77;;;10.40;67.20;12.30;103141.00;;;;4979144;28;20206;-74
2024/01/31 05:34:27;;;;;;;0.90;0.60;;;10.40;67.20;12.30;103136.00;;;;4976240;28;20222;-74
2024/01/31 05:36:55;;;;;;;1.65;0.90;;;10.40;67.10;12.30;103142.00;;;;4994847;28;20213;-74
2024/01/31 05:39:22;;;;;;;1.25;0.50;;;10.40;67.20;12.30;103139.00;;;;4993412;28;20280;-75
2024/01/31 05:41:49;;;;;;;3.30;0.57;;;10.40;67.20;12.30;103145.00;;;;4994788;28;20201;-75
2024/01/31 05:44:16;;;;;;;1.83;0.90;;;10.50;67.30;12.30;103142.00;;;;4994905;28;20216;-74
2024/01/31 05:46:45;;;;;;;1.42;0.95;;;10.40;67.20;12.30;103144.00;;;;4994932;28;20198;-74
2024/01/31 05:49:14;;;;;;;1.67;1.00;;;10.40;67.10;12.30;103143.00;;;;4987939;28;20194;-74
2024/01/31 05:51:41;;;;;;;0.90;0.63;;;10.40;67.20;12.40;103139.00;;;;4975311;28;20210;-75
2024/01/31 05:54:08;;;;;;;3.80;0.98;;;10.50;67.20;12.30;103130.00;;;;4980789;28;20222;-75
2024/01/31 05:56:37;;;;;;;1.98;0.80;;;10.50;67.20;12.30;103124.00;;;;4982855;28;20253;-74
2024/01/31 05:59:05;;;;;;;1.65;0.73;;;10.40;67.10;12.30;103114.00;;;;4982707;28;20202;-75
2024/01/31 06:01:32;;;;;;;0.88;0.60;;;10.40;67.10;12.40;103114.00;;;;4988856;28;20198;-74
2024/01/31 06:03:59;;;;;;;1.58;0.90;;;10.40;67.00;12.30;103114.00;;;;4982088;28;20229;-74
2024/01/31 06:06:28;;;;;;;1.33;0.82;;;10.40;67.00;12.30;103094.00;;;;4994134;28;20629;-75
2024/01/31 06:08:55;;;;;;;1.30;1.00;;;10.50;67.00;12.30;103102.00;;;;4986193;28;20698;-75
2024/01/31 06:11:23;;;;;;;1.73;1.13;;;10.50;67.00;12.30;103105.00;;;;4992864;28;20272;-75
2024/01/31 06:13:50;;;;;;;2.05;1.27;;;10.50;67.00;12.30;103092.00;;;;4992818;28;20194;-74
2024/01/31 06:16:17;;;;;;;2.10;1.23;;;10.40;66.90;12.30;103086.00;;;;4993214;28;20292;-75
2024/01/31 06:18:44;;;;;;;1.85;1.33;;;10.50;66.90;12.30;103077.00;;;;4986858;28;20289;-75
2024/01/31 06:21:11;;;;;;;1.60;1.40;;;10.50;66.90;12.40;103076.00;;;;4977264;28;20285;-75
2024/01/31 06:23:40;;;;;;;2.03;1.55;;;10.50;66.90;12.30;103071.00;;;;4975852;28;20202;-75
2024/01/31 06:26:07;;;;;;;2.78;1.85;;;10.40;66.80;12.30;103068.00;;;;4993248;28;20719;-75
2024/01/31 06:28:38;;;;;;;2.95;2.20;;;10.50;66.90;12.30;103070.00;;;;4994103;28;20205;-75
2024/01/31 06:31:13;;;;;;;3.10;1.95;;;10.50;66.90;12.30;103072.00;;;;4979769;28;20215;-75
2024/01/31 06:33:41;;;;;;;3.85;3.05;;;10.50;66.90;12.30;103073.00;;;;4987447;28;20201;-74
2024/01/31 06:36:09;;;;;;;4.22;3.13;;;10.50;66.80;12.30;103079.00;;;;4986242;28;20288;-75
2024/01/31 06:38:36;;;;;;;4.85;2.92;;;10.50;66.80;12.30;103093.00;;;;4986146;28;20225;-74
2024/01/31 06:41:05;;;;;;;4.60;3.28;;;10.50;66.80;12.30;103109.00;;;;4980320;28;20214;-75
2024/01/31 06:43:31;;;;;;;4.03;3.13;;;10.40;66.70;12.30;103116.00;;;;4987316;28;20281;-75
2024/01/31 06:45:58;;;;;;;4.35;3.03;;;10.50;66.90;12.30;103125.00;;;;4992221;28;20276;-74
2024/01/31 06:48:25;;;;;;;4.90;3.35;;;10.50;66.90;12.30;103141.00;;;;4992024;28;20660;-75
2024/01/31 06:50:52;;;;;;;6.18;4.07;;;10.50;67.00;12.30;103155.00;;;;4990905;28;20209;-75
2024/01/31 06:53:19;;;;;;;6.80;3.70;;;10.50;67.00;12.30;103160.00;;;;4991774;28;20284;-74
2024/01/31 06:55:46;;;;;;;5.00;3.75;;;10.50;67.00;12.30;103174.00;;;;4990329;28;20702;-75
2024/01/31 06:58:15;;;;;;;3.63;3.22;;;10.50;67.00;12.30;103177.00;;;;4987914;28;20193;-76
2024/01/31 07:00:42;;;;;;;4.85;4.20;;;10.50;66.90;12.30;103188.00;;;;4992361;28;20205;-75
2024/01/31 07:03:09;;;;;;;7.60;4.05;;;10.50;66.80;12.30;103188.00;;;;4983122;28;20243;-75
2024/01/31 07:05:36;;;;;;;7.55;3.72;;;10.50;66.80;12.30;103191.00;;;;4981543;28;20221;-75
2024/01/31 07:08:03;;;;;;;4.68;3.97;;;10.50;66.70;12.30;103196.00;;;;4987511;28;20197;-76
2024/01/31 07:10:30;;;;;;;5.32;4.10;;;10.50;67.40;12.30;103188.00;;;;4990082;28;20208;-76
2024/01/31 07:12:57;;;;;;;6.00;3.50;;;10.50;66.70;12.30;103198.00;;;;4981452;28;20569;-76
2024/01/31 07:15:25;;;;;;;7.88;3.88;;;10.50;66.60;12.30;103201.00;;;;4986186;28;20609;-76
2024/01/31 07:17:52;;;;;;;4.20;3.55;;;10.50;66.40;12.30;103208.00;;;;4990657;28;20280;-76
2024/01/31 07:20:20;;;;;;;4.25;3.40;;;10.50;66.40;12.30;103210.00;;;;4983282;28;20281;-75
2024/01/31 07:22:47;;;;;;;5.18;3.67;;;10.50;66.30;12.30;103206.00;;;;4991001;28;20285;-76
2024/01/31 07:25:16;;;;;;;5.03;3.47;;;10.50;66.20;12.30;103214.00;;;;4982936;28;20198;-76
2024/01/31 07:27:44;;;;;;;4.07;3.63;;;10.50;66.10;12.30;103210.00;;;;4984567;28;20208;-75
2024/01/31 07:30:12;;;;;;;3.60;3.05;;;10.60;66.20;12.30;103217.00;;;;4977184;28;20194;-75
2024/01/31 07:32:41;;;;;;;4.00;3.58;;;10.60;66.10;12.30;103211.00;;;;4973801;28;20202;-76
2024/01/31 07:35:08;;;;;;;5.07;3.78;;;10.50;66.00;12.30;103211.00;;;;4973480;28;20244;-75
2024/01/31 07:37:36;;;;;;;3.58;3.08;;;10.60;66.00;12.40;103215.00;;;;4973295;28;20692;-75
2024/01/31 07:40:07;;;;;;;3.95;3.53;;;10.60;66.00;12.40;103210.00;;;;4976540;28;20560;-75
2024/01/31 07:42:34;;;;;;;5.65;3.65;;;10.60;66.10;12.40;103212.00;;;;4990546;28;20208;-75
2024/01/31 07:45:02;;;;;;;4.28;3.60;;;10.60;66.10;12.40;103201.00;;;;4991157;28;20206;-75
2024/01/31 07:47:29;;;;;;;3.85;3.45;;;10.60;66.10;12.40;103206.00;;;;4991966;28;20205;-75
2024/01/31 07:49:58;;;;;;;4.25;3.85;;;10.60;66.10;12.40;103205.00;;;;4991456;28;20197;-75
2024/01/31 07:52:25;;;;;;;4.25;3.85;;;10.60;66.00;12.40;103201.00;;;;4989990;28;20312;-75
2024/01/31 07:54:52;;;;;;;6.18;4.40;;;10.60;65.90;12.40;103202.00;;;;4992011;28;20231;-75
2024/01/31 07:57:19;;;;;;;4.72;3.75;;;10.60;65.90;12.50;103214.00;;;;4990882;28;20205;-76
2024/01/31 07:59:46;;;;;;;4.78;4.35;;;10.70;66.00;12.50;103210.00;;;;4986678;28;20205;-76
2024/01/31 08:02:13;;;;;;;5.47;4.43;;;10.70;65.90;12.50;103197.00;;;;4985171;28;20205;-75
2024/01/31 08:04:40;;;;;;;5.50;4.07;;;10.70;66.00;12.50;103202.00;;;;4976456;28;20308;-75
2024/01/31 08:07:08;;;;;;;4.90;4.28;;;10.70;66.00;12.50;103201.00;;;;4980450;28;20631;-76
2024/01/31 08:09:40;;;;;;;5.38;4.68;;;10.70;66.00;12.50;103205.00;;;;4992411;28;20675;-77
2024/01/31 08:12:08;;;;;;;5.70;4.75;;;10.70;66.00;12.50;103194.00;;;;4979286;28;20189;-76
2024/01/31 08:14:36;;;;;;;5.20;4.18;;;10.70;66.00;12.50;103199.00;;;;4984163;28;20204;-76
2024/01/31 08:17:04;;;;;;;6.20;4.70;;;10.70;66.10;12.50;103197.00;;;;4985085;28;20305;-76
2024/01/31 08:19:33;;;;;;;6.18;4.65;;;10.70;66.00;12.50;103192.00;;;;4987298;28;20209;-76
2024/01/31 08:22:01;;;;;;;5.65;5.00;;;10.70;66.00;12.60;103189.00;;;;5001050;28;20248;-76
2024/01/31 08:24:29;;;;;;;5.55;4.43;;;10.70;66.00;12.60;103185.00;;;;4988820;28;20632;-76
2024/01/31 08:26:57;;;;;;;5.35;4.50;;;10.80;66.00;12.50;103170.00;;;;4984204;28;20640;-76
2024/01/31 08:29:25;;;;;;;4.65;3.90;;;10.80;66.00;12.60;103168.00;;;;4988855;28;20194;-76
2024/01/31 08:31:53;;;;;;;6.68;4.38;;;10.80;66.00;12.60;103157.00;;;;4986746;28;20279;-76
2024/01/31 08:34:21;;;;;;;5.03;4.30;;;10.80;66.10;12.60;103153.00;;;;4991643;28;20193;-76
2024/01/31 08:36:49;;;;;;;5.65;4.85;;;10.80;66.10;12.70;103159.00;;;;4990074;28;20323;-75
2024/01/31 08:39:20;;;;;;;5.32;4.32;;;10.80;66.00;12.60;103153.00;;;;4981001;28;20293;-75
2024/01/31 08:41:48;;;;;;;5.35;4.30;;;10.80;66.00;12.70;103148.00;;;;4982416;28;20620;-72
2024/01/31 08:44:16;;;;;;;4.00;3.63;;;10.80;66.00;12.70;103141.00;;;;4981658;28;20461;-72
2024/01/31 08:46:43;;;;;;;4.38;3.60;;;10.90;66.10;12.70;103140.00;;;;4988026;28;20202;-72
2024/01/31 08:49:10;;;;;;;9.18;3.65;;;10.80;66.00;12.80;103141.00;;;;4990747;28;20662;-72
2024/01/31 08:51:38;;;;;;;7.22;4.40;;;10.90;66.00;12.80;103134.00;;;;4976775;28;20203;-72
2024/01/31 08:54:06;;;;;;;4.25;3.38;;;10.90;66.00;12.80;103123.00;;;;4990658;28;20201;-72
2024/01/31 08:56:33;;;;;;;3.97;3.08;;;10.90;66.00;12.80;103114.00;;;;4990193;28;20758;-72
2024/01/31 08:59:02;;;;;;;4.55;3.10;;;11.00;65.90;12.80;103114.00;;;;4982091;28;20205;-72
2024/01/31 09:01:29;;;;;;;5.00;3.38;;;11.00;65.80;12.90;103116.00;;;;4983685;28;20674;-72
2024/01/31 09:03:56;;;;;;;4.38;3.33;;;11.00;65.70;12.90;103105.00;;;;4980695;28;20328;-72
2024/01/31 09:06:24;;;;;;;5.28;3.40;;;11.00;65.80;13.00;103103.00;;;;4990819;28;20194;-72
2024/01/31 09:08:51;;;;;;;4.93;3.58;;;11.10;66.00;13.00;103111.00;;;;4988295;28;20202;-72
2024/01/31 09:11:18;;;;;;;4.20;2.90;;;11.10;65.90;13.00;103111.00;;;;4990278;28;20288;-72
2024/01/31 09:13:45;;;;;;;4.47;3.05;;;11.10;66.00;13.10;103107.00;;;;4985478;28;21574;-73
2024/01/31 09:16:14;;;;;;;3.25;2.95;;;11.20;66.00;13.10;103098.00;;;;4987551;28;20222;-72
2024/01/31 09:18:41;;;;;;;2.88;2.40;;;11.20;66.00;13.10;103100.00;;;;4983536;28;20190;-72
2024/01/31 09:21:08;;;;;;;3.20;2.83;;;11.20;66.60;13.20;103101.00;;;;4977411;28;20216;-73
2024/01/31 09:23:35;;;;;;;3.60;3.03;;;11.20;65.80;13.20;103102.00;;;;4986601;28;20201;-72
2024/01/31 09:26:03;;;;;;;6.63;3.33;;;11.30;65.90;13.20;103090.00;;;;4988918;28;20206;-73
2024/01/31 09:28:30;;;;;;;2.85;2.17;;;11.30;65.80;13.30;103094.00;;;;4992902;28;20212;-73
2024/01/31 09:30:57;;;;;;;3.33;2.50;;;11.40;65.80;13.30;103098.00;;;;4985961;28;20647;-72
2024/01/31 09:33:28;;;;;;;5.20;2.63;;;11.40;65.60;13.30;103094.00;;;;4988848;28;20276;-73
2024/01/31 09:35:55;;;;;;;3.88;2.13;;;11.40;65.60;13.30;103100.00;;;;4979319;28;20223;-73
2024/01/31 09:38:25;;;;;;;4.40;2.67;;;11.50;65.50;13.40;103107.00;;;;4987950;28;20222;-73
2024/01/31 09:40:52;;;;;;;6.38;2.95;;;11.50;65.50;13.40;103114.00;;;;4986859;28;20202;-72
2024/01/31 09:43:21;;;;;;;5.60;3.00;;;11.50;65.50;13.40;103118.00;;;;4988174;28;20213;-73
2024/01/31 09:45:51;;;;;;;5.30;2.67;;;11.60;65.50;13.40;103106.00;;;;4987800;28;20202;-73
2024/01/31 09:48:20;;;;;;;4.55;3.38;;;11.60;66.10;13.50;103105.00;;;;4993101;28;20731;-73
2024/01/31 09:50:49;;;;;;;4.80;2.85;;;11.60;65.40;13.50;103108.00;;;;4984408;28;20576;-73
2024/01/31 09:53:17;;;;;;;5.55;3.10;;;11.70;65.40;13.50;103097.00;;;;4985154;28;20202;-73
2024/01/31 09:55:45;;;;;;;5.28;2.78;;;11.70;65.40;13.50;103098.00;;;;4991453;28;20316;-73
2024/01/31 09:58:12;;;;;;;6.35;3.40;;;11.70;65.30;13.60;103103.00;;;;4987234;28;20208;-73
2024/01/31 10:00:39;;;;;;;5.57;3.28;;;11.70;65.20;13.60;103110.00;;;;4993299;28;20288;-73
2024/01/31 10:03:09;;;;;;;4.95;3.50;;;11.70;65.20;13.60;103115.00;;;;4987837;28;20261;-73
2024/01/31 10:05:36;;;;;;;5.50;3.28;;;11.70;65.20;13.60;103125.00;;;;4988427;28;20209;-73
2024/01/31 10:08:06;;;;;;;4.63;2.85;;;11.80;65.20;13.60;103121.00;;;;4985359;28;20198;-72
2024/01/31 10:10:33;;;;;;;4.95;2.85;;;11.80;65.20;13.60;103126.00;;;;4985427;28;20195;-75
2024/01/31 10:13:00;;;;;;;4.93;3.50;;;11.80;65.20;13.60;103121.00;;;;4988941;28;20610;-72
2024/01/31 10:15:27;;;;;;;6.68;3.55;;;11.80;65.20;13.70;103118.00;;;;4984746;28;20225;-73
2024/01/31 10:17:54;;;;;;;6.28;3.83;;;11.80;65.90;13.70;103125.00;;;;4988852;28;20194;-72
2024/01/31 10:20:22;;;;;;;6.72;3.80;;;11.80;65.30;13.70;103126.00;;;;4990423;28;20651;-73
2024/01/31 10:22:49;;;;;;;11.55;4.00;;;11.80;65.30;13.70;103125.00;;;;4992181;28;20198;-73
2024/01/31 10:25:18;;;;;;;6.13;4.03;;;11.80;65.30;13.70;103122.00;;;;4992566;28;20229;-72
2024/01/31 10:27:46;;;;;;;6.57;4.05;;;11.80;65.30;13.70;103130.00;;;;4981986;28;20210;-72
2024/01/31 10:30:15;;;;;;;7.63;5.60;;;11.90;65.40;13.70;103124.00;;;;4991134;28;20459;-72
2024/01/31 10:32:43;;;;;;;8.57;5.30;;;11.90;65.60;13.80;103115.00;;;;4990454;28;20917;-72
2024/01/31 10:35:11;;;;;;;7.50;5.35;;;11.90;65.60;13.80;103114.00;;;;4988551;28;20286;-72
2024/01/31 10:37:39;;;;;;;8.30;4.72;;;11.90;65.60;13.80;103113.00;;;;4984823;28;20218;-73
2024/01/31 10:40:09;;;;;;;7.75;5.28;;;11.90;65.60;13.80;103110.00;;;;4988903;28;20647;-72
2024/01/31 10:42:39;;;;;;;6.13;4.68;;;11.90;65.50;13.80;103106.00;;;;4990413;28;20696;-72
2024/01/31 10:45:08;;;;;;;10.02;6.53;;;11.90;65.50;13.80;103092.00;;;;4992317;28;20236;-72
2024/01/31 10:47:35;;;;;;;11.63;6.03;;;12.00;65.60;13.80;103088.00;;;;4990965;28;20220;-72
2024/01/31 10:50:02;;;;;;;11.32;5.88;;;12.00;65.70;13.90;103087.00;;;;4989535;28;20246;-72